Time;durP1;ratioP1;P1;durP2;ratioP2;P2;SDS_P1;SDS_P2;PMS_P1;PMS_P2;Temp;Humidity;BMP_temperature;BMP_pressure;BME280_temperature;BME280_humidity;BME280_pressure;Samples;Min_cycle;Max_cycle;Signal;HPM_P1;HPM_P2
2022/05/06 00:00:56;;;;;;;0.90;0.90;;;20.90;55.20;;;;;;4973467;28;20090;-16
2022/05/06 00:03:21;;;;;;;0.77;0.77;;;20.90;55.20;;;;;;4960150;28;20051;-17
2022/05/06 00:05:47;;;;;;;0.88;0.88;;;20.80;55.30;;;;;;4971670;28;20051;-16
2022/05/06 00:08:13;;;;;;;0.80;0.80;;;20.90;55.40;;;;;;4984844;28;20086;-17
2022/05/06 00:10:39;;;;;;;1.10;1.10;;;20.80;55.20;;;;;;4984041;28;20054;-16
2022/05/06 00:13:05;;;;;;;1.00;1.00;;;20.90;55.20;;;;;;4975505;28;20054;-17
2022/05/06 00:15:31;;;;;;;0.73;0.73;;;20.80;55.20;;;;;;4963194;28;20054;-16
2022/05/06 00:17:56;;;;;;;0.90;0.90;;;20.90;55.20;;;;;;4984514;28;20053;-16
2022/05/06 00:20:22;;;;;;;1.20;0.95;;;20.90;55.10;;;;;;4975716;28;20138;-16
2022/05/06 00:22:48;;;;;;;1.05;0.95;;;20.90;55.10;;;;;;4975449;28;20063;-16
2022/05/06 00:25:13;;;;;;;3.47;1.00;;;20.90;55.00;;;;;;4975255;28;20053;-16
2022/05/06 00:27:41;;;;;;;0.93;0.93;;;20.90;55.10;;;;;;4976221;28;20181;-16
2022/05/06 00:30:07;;;;;;;1.17;0.80;;;20.90;55.00;;;;;;4972071;28;20035;-17
2022/05/06 00:32:33;;;;;;;0.80;0.80;;;20.90;55.00;;;;;;4980079;28;20050;-16
2022/05/06 00:34:58;;;;;;;0.73;0.60;;;20.90;55.00;;;;;;4976315;28;20146;-16
2022/05/06 00:37:24;;;;;;;0.77;0.77;;;20.90;55.00;;;;;;4997729;28;20876;-16
2022/05/06 00:39:50;;;;;;;1.00;1.00;;;20.90;55.00;;;;;;4992527;28;20093;-16
2022/05/06 00:42:16;;;;;;;0.90;0.90;;;20.90;55.00;;;;;;4979388;28;20137;-16
2022/05/06 00:44:42;;;;;;;1.02;0.93;;;20.90;55.10;;;;;;4979350;28;20070;-16
2022/05/06 00:47:07;;;;;;;0.93;0.77;;;20.90;55.00;;;;;;4977438;28;20038;-16
2022/05/06 00:49:34;;;;;;;0.88;0.88;;;20.90;55.00;;;;;;4985575;28;20408;-16
2022/05/06 00:51:59;;;;;;;0.82;0.82;;;20.80;54.90;;;;;;4972640;28;20131;-16
2022/05/06 00:54:25;;;;;;;1.33;0.88;;;20.90;55.00;;;;;;4975534;28;20086;-16
2022/05/06 00:56:51;;;;;;;0.88;0.88;;;20.90;55.00;;;;;;4979371;28;20047;-16
2022/05/06 00:59:17;;;;;;;1.08;0.98;;;20.90;55.00;;;;;;4979406;28;20045;-16
2022/05/06 01:01:43;;;;;;;0.60;0.60;;;20.90;55.00;;;;;;4981594;28;20053;-16
2022/05/06 01:04:10;;;;;;;0.73;0.73;;;20.80;54.90;;;;;;4977238;28;20050;-18
2022/05/06 01:06:36;;;;;;;0.90;0.90;;;20.90;55.00;;;;;;4979166;28;20073;-16
2022/05/06 01:09:02;;;;;;;0.63;0.63;;;20.90;55.00;;;;;;4967562;28;20043;-16
2022/05/06 01:11:28;;;;;;;0.70;0.70;;;20.80;54.90;;;;;;4964980;28;20550;-16
2022/05/06 01:13:55;;;;;;;0.95;0.95;;;20.90;55.00;;;;;;5008438;28;20610;-16
2022/05/06 01:16:21;;;;;;;0.93;0.93;;;20.80;54.90;;;;;;4978651;28;20050;-16
2022/05/06 01:18:47;;;;;;;0.73;0.70;;;20.80;55.00;;;;;;4979214;28;20047;-16
2022/05/06 01:21:17;;;;;;;0.77;0.77;;;20.80;55.00;;;;;;4971245;28;20051;-16
2022/05/06 01:23:43;;;;;;;0.80;0.80;;;20.80;55.10;;;;;;4995716;28;20137;-16
2022/05/06 01:26:08;;;;;;;1.00;1.00;;;20.80;55.10;;;;;;4967777;28;21012;-16
2022/05/06 01:28:35;;;;;;;1.10;1.10;;;20.80;55.10;;;;;;4978141;28;20045;-17
2022/05/06 01:31:01;;;;;;;0.90;0.90;;;20.80;55.10;;;;;;4991016;28;20050;-17
2022/05/06 01:33:28;;;;;;;1.63;0.90;;;20.80;55.10;;;;;;4989703;28;20138;-16
2022/05/06 01:35:56;;;;;;;0.63;0.63;;;20.70;55.10;;;;;;4971255;28;20043;-16
2022/05/06 01:38:43;;;;;;;0.80;0.80;;;20.70;55.10;;;;;;4967170;28;20055;-16
2022/05/06 01:41:13;;;;;;;0.88;0.88;;;20.70;55.20;;;;;;4972360;28;20127;-16
2022/05/06 01:43:43;;;;;;;0.70;0.70;;;20.70;55.30;;;;;;4956992;28;20048;-16
2022/05/06 01:46:13;;;;;;;1.00;1.00;;;20.70;55.20;;;;;;4957029;28;20126;-16
2022/05/06 01:48:39;;;;;;;1.00;1.00;;;20.70;55.30;;;;;;4968141;28;20583;-16
2022/05/06 01:51:05;;;;;;;0.90;0.90;;;20.70;55.30;;;;;;4976508;28;20563;-17
2022/05/06 01:53:30;;;;;;;0.70;0.70;;;20.60;55.40;;;;;;4975928;28;20047;-16
2022/05/06 01:55:56;;;;;;;0.88;0.88;;;20.70;55.40;;;;;;4987827;28;20062;-16
2022/05/06 01:58:21;;;;;;;0.75;0.75;;;20.60;55.30;;;;;;4977594;28;20038;-16
2022/05/06 02:00:47;;;;;;;0.70;0.70;;;20.70;55.30;;;;;;4977519;28;20141;-16
2022/05/06 02:05:57;;;;;;;5.60;1.02;;;20.70;55.40;;;;;;4976967;28;20130;-16
2022/05/06 02:08:22;;;;;;;0.90;0.90;;;20.60;55.40;;;;;;4970421;28;20070;-16
2022/05/06 02:10:48;;;;;;;1.02;1.00;;;20.60;55.50;;;;;;4969553;28;20047;-16
2022/05/06 02:13:14;;;;;;;0.80;0.80;;;20.60;55.50;;;;;;4977665;28;20047;-16
2022/05/06 02:15:39;;;;;;;0.90;0.90;;;20.60;55.60;;;;;;4988320;28;20066;-16
2022/05/06 02:18:05;;;;;;;0.80;0.80;;;20.60;55.40;;;;;;4962048;28;20039;-16
2022/05/06 02:20:31;;;;;;;1.00;1.00;;;20.60;55.50;;;;;;4965658;28;20046;-16
2022/05/06 02:22:56;;;;;;;0.73;0.73;;;20.60;55.60;;;;;;4975451;28;20457;-16
2022/05/06 02:25:22;;;;;;;0.70;0.70;;;20.60;55.60;;;;;;4975314;28;20045;-16
2022/05/06 02:27:48;;;;;;;0.93;0.93;;;20.60;55.50;;;;;;4977088;28;20386;-16
2022/05/06 02:33:13;;;;;;;0.70;0.70;;;20.60;55.70;;;;;;4957103;28;20046;-16
2022/05/06 02:35:40;;;;;;;0.98;0.88;;;20.60;55.60;;;;;;4977114;28;20046;-17
2022/05/06 02:38:06;;;;;;;1.25;1.15;;;20.60;55.60;;;;;;4971233;28;20034;-16
2022/05/06 02:40:34;;;;;;;1.25;1.15;;;20.60;55.70;;;;;;4986877;28;20058;-16
2022/05/06 02:43:00;;;;;;;0.80;0.80;;;20.50;55.70;;;;;;4964194;28;20138;-16
2022/05/06 02:45:26;;;;;;;0.80;0.80;;;20.50;55.70;;;;;;4976184;28;20623;-16
2022/05/06 02:47:52;;;;;;;0.90;0.90;;;20.50;55.60;;;;;;4975567;28;20512;-16
2022/05/06 02:50:17;;;;;;;0.80;0.80;;;20.60;55.60;;;;;;4975909;28;20042;-17
2022/05/06 02:52:43;;;;;;;0.80;0.80;;;20.50;55.70;;;;;;4980314;28;20049;-16
2022/05/06 02:55:09;;;;;;;0.90;0.90;;;20.50;55.70;;;;;;4976078;28;20053;-16
2022/05/06 02:57:34;;;;;;;0.80;0.80;;;20.50;55.80;;;;;;4965076;28;20047;-16
2022/05/06 03:00:00;;;;;;;0.80;0.80;;;20.50;55.80;;;;;;4969700;28;20050;-16
2022/05/06 03:02:25;;;;;;;0.80;0.80;;;20.50;55.80;;;;;;4973230;28;20047;-16
2022/05/06 03:04:51;;;;;;;0.68;0.68;;;20.50;55.80;;;;;;4976828;28;20411;-16
2022/05/06 03:07:17;;;;;;;0.70;0.70;;;20.50;55.90;;;;;;4963209;28;20046;-17
2022/05/06 03:09:42;;;;;;;0.70;0.70;;;20.50;55.80;;;;;;4975460;28;20401;-16
2022/05/06 03:12:09;;;;;;;0.80;0.80;;;20.50;55.90;;;;;;4975917;28;20039;-16
2022/05/06 03:14:34;;;;;;;0.80;0.80;;;20.50;56.00;;;;;;4976551;28;20066;-16
2022/05/06 03:17:00;;;;;;;0.95;0.93;;;20.50;55.80;;;;;;4975180;28;20038;-17
2022/05/06 03:19:25;;;;;;;1.00;1.00;;;20.50;55.90;;;;;;4973037;28;20042;-16
2022/05/06 03:21:54;;;;;;;1.38;1.27;;;20.40;56.00;;;;;;4976541;28;20046;-16
2022/05/06 03:24:19;;;;;;;0.80;0.80;;;20.50;56.10;;;;;;4975364;28;20058;-16
2022/05/06 03:26:45;;;;;;;0.70;0.70;;;20.40;55.90;;;;;;4975226;28;20035;-16
2022/05/06 03:29:11;;;;;;;1.00;1.00;;;20.50;55.90;;;;;;4981979;28;20105;-17
2022/05/06 03:31:36;;;;;;;0.88;0.88;;;20.50;55.80;;;;;;4969598;28;20511;-16
2022/05/06 03:34:05;;;;;;;1.00;1.00;;;20.50;55.90;;;;;;4974978;28;21209;-16
2022/05/06 03:36:32;;;;;;;1.25;1.10;;;20.50;55.80;;;;;;4959969;28;20102;-16
2022/05/06 03:38:58;;;;;;;0.90;0.90;;;20.50;55.90;;;;;;4957299;28;20058;-16
2022/05/06 03:41:23;;;;;;;1.95;1.00;;;20.50;55.90;;;;;;5002107;28;20043;-16
2022/05/06 03:43:49;;;;;;;1.00;1.00;;;20.50;55.80;;;;;;4975459;28;20137;-16
2022/05/06 03:46:14;;;;;;;1.00;1.00;;;20.50;55.80;;;;;;4977457;28;20039;-16
2022/05/06 03:48:40;;;;;;;1.10;1.10;;;20.50;55.90;;;;;;4976436;28;20074;-16
2022/05/06 03:51:21;;;;;;;1.00;1.00;;;20.40;55.80;;;;;;4975450;28;20058;-16
2022/05/06 03:53:50;;;;;;;1.00;1.00;;;20.50;55.90;;;;;;4965107;28;20050;-17
2022/05/06 03:56:16;;;;;;;1.27;1.27;;;20.50;55.90;;;;;;4976274;28;20050;-16
2022/05/06 03:58:42;;;;;;;0.82;0.80;;;20.50;55.90;;;;;;4973808;28;20061;-16
2022/05/06 04:01:08;;;;;;;1.67;1.40;;;20.50;55.90;;;;;;4968086;28;20585;-17
2022/05/06 04:03:33;;;;;;;1.05;1.05;;;20.50;55.80;;;;;;4970983;28;20039;-16
2022/05/06 04:05:59;;;;;;;1.00;1.00;;;20.50;55.80;;;;;;4968343;28;20053;-16
2022/05/06 04:08:25;;;;;;;1.00;1.00;;;20.50;55.90;;;;;;4974584;28;20078;-17
2022/05/06 04:10:50;;;;;;;1.10;1.10;;;20.50;56.00;;;;;;4978539;28;20047;-16
2022/05/06 04:13:18;;;;;;;0.90;0.90;;;20.50;56.00;;;;;;4979923;28;20054;-16
2022/05/06 04:15:47;;;;;;;1.02;1.02;;;20.50;56.00;;;;;;4978712;28;20051;-16
2022/05/06 04:18:13;;;;;;;1.20;1.20;;;20.50;55.90;;;;;;4979736;28;20051;-16
2022/05/06 04:23:29;;;;;;;1.00;1.00;;;20.50;55.90;;;;;;4971162;28;20433;-16
2022/05/06 04:25:55;;;;;;;0.80;0.80;;;20.50;56.00;;;;;;4973424;28;20043;-17
2022/05/06 04:28:21;;;;;;;1.23;1.15;;;20.50;55.90;;;;;;4975549;28;20050;-17
2022/05/06 04:30:47;;;;;;;1.38;1.30;;;20.50;56.00;;;;;;4978860;28;20046;-15
2022/05/06 04:33:12;;;;;;;1.20;1.20;;;20.50;56.00;;;;;;4970059;28;20051;-16
2022/05/06 04:35:39;;;;;;;1.42;1.33;;;20.50;56.10;;;;;;4980460;28;20043;-16
2022/05/06 04:38:05;;;;;;;1.20;1.20;;;20.40;56.10;;;;;;4969727;28;20392;-16
2022/05/06 04:40:30;;;;;;;1.17;1.17;;;20.40;56.20;;;;;;4972425;28;20050;-16
2022/05/06 04:42:56;;;;;;;1.38;1.30;;;20.40;56.20;;;;;;4979594;28;20190;-16
2022/05/06 04:45:21;;;;;;;1.25;1.25;;;20.40;56.20;;;;;;4978391;28;20046;-17
2022/05/06 04:47:47;;;;;;;1.05;1.05;;;20.40;56.20;;;;;;4976909;28;20102;-17
2022/05/06 04:50:13;;;;;;;1.40;1.40;;;20.50;56.30;;;;;;4975866;28;20122;-16
2022/05/06 04:52:38;;;;;;;1.42;1.42;;;20.40;56.40;;;;;;4971242;28;20523;-16
2022/05/06 04:55:04;;;;;;;1.90;1.80;;;20.40;56.50;;;;;;4975301;28;20054;-16
2022/05/06 04:57:30;;;;;;;1.55;1.45;;;20.40;56.70;;;;;;4979770;28;20556;-17
2022/05/06 04:59:56;;;;;;;1.58;1.48;;;20.40;57.00;;;;;;4978863;28;20472;-16
2022/05/06 05:02:21;;;;;;;1.30;1.30;;;20.40;57.20;;;;;;4978960;28;20081;-16
2022/05/06 05:04:48;;;;;;;1.25;1.25;;;20.40;56.90;;;;;;4977234;28;20046;-16
2022/05/06 05:07:13;;;;;;;1.58;1.48;;;20.40;56.80;;;;;;4977145;28;20034;-17
2022/05/06 05:09:39;;;;;;;1.85;1.75;;;20.40;56.80;;;;;;4977682;28;20123;-16
2022/05/06 05:12:05;;;;;;;1.77;1.67;;;20.50;57.20;;;;;;4977163;28;20471;-17
2022/05/06 05:14:34;;;;;;;1.90;1.80;;;20.40;57.20;;;;;;4977329;28;20042;-17
2022/05/06 05:16:59;;;;;;;2.05;1.48;;;20.50;57.00;;;;;;4979492;28;20054;-16
2022/05/06 05:19:25;;;;;;;1.60;1.20;;;20.40;57.20;;;;;;4975502;28;20503;-16
2022/05/06 05:21:50;;;;;;;2.08;1.98;;;20.40;57.20;;;;;;4978589;28;20043;-16
2022/05/06 05:24:16;;;;;;;1.45;1.35;;;20.40;57.20;;;;;;4978080;28;20486;-16
2022/05/06 05:26:43;;;;;;;1.33;1.33;;;20.40;57.20;;;;;;4977794;28;20042;-16
2022/05/06 05:29:09;;;;;;;2.83;1.40;;;20.40;56.90;;;;;;4963545;28;20043;-16
2022/05/06 05:31:34;;;;;;;1.38;1.27;;;20.40;57.40;;;;;;4972740;28;20045;-16
2022/05/06 05:34:00;;;;;;;2.22;2.00;;;20.40;57.30;;;;;;4975787;28;20054;-16
2022/05/06 05:36:25;;;;;;;2.35;1.70;;;20.40;57.60;;;;;;4977259;28;20053;-16
2022/05/06 05:38:51;;;;;;;2.58;1.90;;;20.30;57.70;;;;;;4974992;28;20047;-17
2022/05/06 05:41:17;;;;;;;2.65;1.80;;;20.30;57.80;;;;;;4996083;28;20053;-16
2022/05/06 05:49:11;;;;;;;2.80;1.52;;;20.30;57.60;;;;;;4981028;28;19924;-16
2022/05/06 05:51:36;;;;;;;2.10;1.42;;;20.30;57.50;;;;;;4969187;28;20500;-17
2022/05/06 05:54:02;;;;;;;1.98;1.50;;;20.40;57.40;;;;;;4974976;28;20081;-16
2022/05/06 05:56:28;;;;;;;1.50;1.40;;;20.40;57.50;;;;;;4977848;28;20481;-17
2022/05/06 05:58:53;;;;;;;1.80;1.70;;;20.30;57.40;;;;;;4978759;28;20053;-16
2022/05/06 06:01:19;;;;;;;1.67;1.58;;;20.30;57.50;;;;;;4977843;28;20488;-16
2022/05/06 06:03:45;;;;;;;2.55;1.92;;;20.40;57.50;;;;;;4977744;28;20492;-16
2022/05/06 06:06:10;;;;;;;1.70;1.60;;;20.30;57.40;;;;;;4977193;28;20054;-16
2022/05/06 06:08:36;;;;;;;1.58;1.48;;;20.30;57.50;;;;;;4971171;28;20141;-16
2022/05/06 06:11:03;;;;;;;1.60;1.50;;;20.30;57.40;;;;;;4965804;28;20078;-17
2022/05/06 06:13:30;;;;;;;5.35;2.35;;;20.40;57.30;;;;;;4979751;28;20051;-17
2022/05/06 06:15:56;;;;;;;3.42;2.15;;;20.40;57.40;;;;;;4964588;28;20065;-20
2022/05/06 06:18:26;;;;;;;1.73;1.63;;;20.40;57.00;;;;;;4960124;28;20054;-19
2022/05/06 06:20:53;;;;;;;1.77;1.67;;;20.40;57.40;;;;;;4963374;28;20050;-18
2022/05/06 06:23:20;;;;;;;2.05;1.95;;;20.20;57.50;;;;;;4961790;28;20043;-18
2022/05/06 06:25:45;;;;;;;2.10;2.00;;;20.20;57.60;;;;;;4962179;28;20051;-18
2022/05/06 06:28:11;;;;;;;1.90;1.80;;;20.20;57.60;;;;;;4963153;28;20047;-18
2022/05/06 06:30:36;;;;;;;3.38;2.00;;;20.20;58.50;;;;;;4963394;28;20067;-18
2022/05/06 06:33:03;;;;;;;2.28;1.98;;;20.20;57.90;;;;;;4963007;28;20038;-18
2022/05/06 06:35:28;;;;;;;1.80;1.70;;;20.20;58.00;;;;;;4961544;28;20039;-19
2022/05/06 06:37:54;;;;;;;3.35;2.10;;;20.20;58.00;;;;;;4961741;28;20085;-19
2022/05/06 06:40:20;;;;;;;1.60;1.60;;;20.20;57.90;;;;;;4962218;28;20038;-18
2022/05/06 06:42:46;;;;;;;1.90;1.80;;;20.20;57.90;;;;;;4962583;28;20078;-19
2022/05/06 06:45:12;;;;;;;2.22;2.05;;;20.20;57.90;;;;;;4961373;28;20118;-19
2022/05/06 06:47:38;;;;;;;2.05;1.95;;;20.20;57.90;;;;;;4962577;28;20051;-17
2022/05/06 06:50:04;;;;;;;2.15;2.05;;;20.20;57.90;;;;;;4962609;28;20050;-17
2022/05/06 06:52:29;;;;;;;2.25;2.15;;;20.30;57.90;;;;;;4960562;28;20054;-17
2022/05/06 06:54:57;;;;;;;2.38;2.10;;;20.30;57.90;;;;;;4961135;28;20047;-19
2022/05/06 06:57:22;;;;;;;2.67;2.40;;;20.30;57.70;;;;;;4961689;28;20042;-17
2022/05/06 06:59:48;;;;;;;2.63;2.28;;;20.20;57.90;;;;;;4962683;28;20050;-18
2022/05/06 07:02:13;;;;;;;2.10;2.00;;;20.20;57.90;;;;;;4961345;28;20117;-18
2022/05/06 07:04:39;;;;;;;2.30;2.20;;;20.30;58.00;;;;;;4960277;28;20116;-17
2022/05/06 07:12:34;;;;;;;;;;;20.30;57.70;;;;;;4962274;28;20643;-18
2022/05/06 07:15:01;;;;;;;3.28;3.10;;;20.30;58.00;;;;;;4960306;28;19925;-17
2022/05/06 07:17:27;;;;;;;3.70;3.45;;;20.00;58.70;;;;;;4974607;28;20058;-17
2022/05/06 07:19:52;;;;;;;4.80;4.50;;;19.90;59.20;;;;;;4973797;28;20039;-17
2022/05/06 07:22:18;;;;;;;4.45;4.25;;;19.80;59.30;;;;;;4979719;28;20146;-17
2022/05/06 07:24:44;;;;;;;5.22;4.93;;;19.70;59.50;;;;;;4992758;28;20403;-16
2022/05/06 07:27:09;;;;;;;5.25;4.95;;;19.80;59.60;;;;;;4975247;28;20101;-17
2022/05/06 07:29:35;;;;;;;5.40;5.00;;;19.70;59.80;;;;;;4974194;28;20034;-16
2022/05/06 07:32:00;;;;;;;5.30;5.00;;;19.70;59.80;;;;;;4976903;28;20045;-17
2022/05/06 07:34:26;;;;;;;6.55;6.05;;;19.70;59.90;;;;;;5007494;28;21393;-17
2022/05/06 07:36:52;;;;;;;5.35;5.05;;;19.50;60.50;;;;;;4975517;28;20097;-16
2022/05/06 07:39:17;;;;;;;5.82;5.32;;;19.50;60.20;;;;;;4975993;28;20054;-17
2022/05/06 07:41:43;;;;;;;5.40;5.10;;;19.40;60.80;;;;;;4974296;28;20043;-17
2022/05/06 07:44:09;;;;;;;5.60;5.30;;;19.50;60.50;;;;;;4970507;28;20046;-17
2022/05/06 07:46:35;;;;;;;5.65;5.32;;;19.50;60.40;;;;;;4971210;28;20094;-17
2022/05/06 07:49:00;;;;;;;6.40;5.90;;;19.50;60.60;;;;;;4975641;28;20046;-17
2022/05/06 07:51:27;;;;;;;5.68;5.28;;;19.50;60.80;;;;;;4974578;28;20042;-16
2022/05/06 07:53:55;;;;;;;5.85;5.45;;;19.50;60.70;;;;;;4978228;28;20053;-16
2022/05/06 07:56:22;;;;;;;5.43;5.07;;;19.40;61.20;;;;;;4963502;28;20500;-16
2022/05/06 07:58:47;;;;;;;5.57;5.22;;;19.30;61.70;;;;;;4977658;28;20122;-17
2022/05/06 08:01:13;;;;;;;5.40;5.10;;;19.30;61.60;;;;;;4973683;28;20070;-16
2022/05/06 08:06:23;;;;;;;5.70;5.30;;;19.70;60.70;;;;;;4976089;28;20053;-16
2022/05/06 08:08:49;;;;;;;5.85;5.38;;;19.50;61.40;;;;;;4978716;28;20129;-17
2022/05/06 08:11:15;;;;;;;6.13;5.72;;;19.60;61.20;;;;;;4977503;28;20055;-16
2022/05/06 08:13:40;;;;;;;6.55;6.13;;;19.60;61.30;;;;;;4974409;28;20070;-16
2022/05/06 08:16:06;;;;;;;6.75;6.22;;;19.60;61.50;;;;;;4973837;28;20126;-16
2022/05/06 08:18:31;;;;;;;6.75;6.15;;;19.50;62.10;;;;;;4975238;28;20113;-16
2022/05/06 08:20:57;;;;;;;7.20;6.68;;;19.50;62.20;;;;;;4975296;28;20054;-16
2022/05/06 08:23:23;;;;;;;6.60;6.22;;;19.30;63.10;;;;;;4975525;28;20504;-16
2022/05/06 08:25:52;;;;;;;6.45;6.03;;;19.40;62.90;;;;;;4975877;28;20054;-17
2022/05/06 08:28:19;;;;;;;7.40;6.90;;;19.20;63.10;;;;;;4972222;28;20047;-15
2022/05/06 08:30:48;;;;;;;6.40;5.90;;;19.20;63.10;;;;;;4978695;28;20054;-17
2022/05/06 08:33:14;;;;;;;7.85;6.80;;;19.20;63.30;;;;;;4968018;28;20054;-16
2022/05/06 08:35:41;;;;;;;5.47;5.07;;;19.30;63.30;;;;;;4971754;28;20476;-16
2022/05/06 08:38:08;;;;;;;5.57;5.18;;;19.40;62.90;;;;;;4975490;28;20047;-16
2022/05/06 08:40:35;;;;;;;5.32;4.93;;;19.40;62.40;;;;;;4974189;28;20097;-16
2022/05/06 08:43:01;;;;;;;5.43;5.03;;;19.40;62.70;;;;;;4981627;28;20046;-16
2022/05/06 08:50:58;;;;;;;5.43;5.03;;;19.40;62.90;;;;;;4974313;28;20053;-16
2022/05/06 08:53:34;;;;;;;4.28;4.05;;;19.40;62.70;;;;;;4966501;28;20047;-16
2022/05/06 08:56:02;;;;;;;7.10;4.88;;;19.40;62.90;;;;;;4956526;28;20043;-16
2022/05/06 08:58:28;;;;;;;5.40;4.90;;;19.40;62.70;;;;;;4959725;28;20574;-16
2022/05/06 09:01:02;;;;;;;4.78;4.50;;;19.60;61.80;;;;;;4960138;28;20451;-16
2022/05/06 09:03:28;;;;;;;4.40;4.10;;;19.60;62.10;;;;;;4977334;28;20123;-15
2022/05/06 09:05:54;;;;;;;5.40;5.00;;;19.50;62.40;;;;;;4979026;28;20496;-16
2022/05/06 09:08:21;;;;;;;4.55;4.15;;;19.50;62.40;;;;;;4978919;28;20050;-16
2022/05/06 09:11:09;;;;;;;4.80;4.35;;;19.60;62.30;;;;;;4977352;28;20102;-16
2022/05/06 09:13:36;;;;;;;4.80;4.50;;;19.50;62.30;;;;;;4978389;28;20049;-16
2022/05/06 09:16:39;;;;;;;4.57;4.28;;;19.50;62.50;;;;;;4979249;28;20078;-16
2022/05/06 09:19:19;;;;;;;4.60;4.30;;;19.60;62.30;;;;;;4977498;28;20047;-16
2022/05/06 09:22:18;;;;;;;4.35;4.07;;;19.60;62.30;;;;;;4977257;28;20094;-16
2022/05/06 09:24:44;;;;;;;4.20;4.00;;;19.60;62.20;;;;;;4965615;28;20448;-15
2022/05/06 09:27:11;;;;;;;5.10;4.60;;;19.60;62.20;;;;;;4977298;28;20039;-16
2022/05/06 09:29:52;;;;;;;4.53;4.20;;;19.70;62.20;;;;;;4976935;28;20050;-16
2022/05/06 09:32:23;;;;;;;4.40;4.00;;;19.80;61.50;;;;;;4975319;28;20505;-16
2022/05/06 09:35:14;;;;;;;3.83;3.63;;;19.90;61.00;;;;;;4974294;28;20055;-16
2022/05/06 09:37:49;;;;;;;4.28;3.92;;;20.00;60.70;;;;;;4974332;28;20073;-16
2022/05/06 09:40:18;;;;;;;4.28;3.97;;;20.00;60.00;;;;;;4978708;28;20078;-17
2022/05/06 09:42:57;;;;;;;4.13;3.83;;;20.10;59.80;;;;;;4971369;28;20042;-17
2022/05/06 09:45:29;;;;;;;4.05;3.70;;;20.20;59.80;;;;;;4975911;28;20440;-15
2022/05/06 09:48:01;;;;;;;3.85;3.60;;;20.20;59.70;;;;;;4973104;28;20050;-16
2022/05/06 09:50:36;;;;;;;3.75;3.50;;;20.20;59.40;;;;;;4974585;28;20035;-15
2022/05/06 09:53:03;;;;;;;3.95;3.65;;;20.30;59.50;;;;;;4964574;28;20106;-15
2022/05/06 09:55:29;;;;;;;3.70;3.50;;;20.30;59.60;;;;;;4977388;28;20093;-17
2022/05/06 09:57:56;;;;;;;3.60;3.40;;;20.30;59.80;;;;;;4977753;28;20051;-16
2022/05/06 10:00:21;;;;;;;3.40;3.20;;;20.30;59.70;;;;;;4977060;28;20051;-16
2022/05/06 10:02:47;;;;;;;3.40;3.20;;;20.30;59.90;;;;;;4958635;28;20045;-16
2022/05/06 10:05:13;;;;;;;4.05;3.63;;;20.30;60.00;;;;;;4978412;28;20042;-16
2022/05/06 10:07:42;;;;;;;3.65;3.45;;;20.40;59.80;;;;;;4974675;28;20039;-15
2022/05/06 10:10:12;;;;;;;3.13;3.03;;;20.40;59.80;;;;;;4978124;28;20074;-16
2022/05/06 10:12:42;;;;;;;3.38;3.17;;;20.40;59.70;;;;;;4971601;28;20039;-16
2022/05/06 10:15:09;;;;;;;3.13;2.92;;;20.50;59.50;;;;;;4977336;28;20051;-15
2022/05/06 10:17:47;;;;;;;3.28;3.03;;;20.50;59.50;;;;;;4964121;28;20042;-16
2022/05/06 10:20:41;;;;;;;3.40;3.20;;;20.50;59.30;;;;;;4969799;28;20098;-15
2022/05/06 10:23:11;;;;;;;3.35;3.15;;;20.50;59.20;;;;;;4957855;28;20487;-15
2022/05/06 10:25:43;;;;;;;3.42;3.22;;;20.50;59.20;;;;;;4967214;28;20126;-16
2022/05/06 10:34:17;;;;;;;3.42;3.22;;;20.70;58.90;;;;;;4974623;28;20119;-16
2022/05/06 10:36:43;;;;;;;2.92;2.72;;;20.70;58.90;;;;;;4967669;28;20099;-16
2022/05/06 10:39:28;;;;;;;2.50;2.40;;;20.70;58.80;;;;;;4971167;28;20039;-16
2022/05/06 10:42:03;;;;;;;2.88;2.70;;;20.70;58.60;;;;;;4974388;28;20554;-16
2022/05/06 10:44:35;;;;;;;3.00;2.90;;;20.70;58.70;;;;;;4985358;28;20409;-16
2022/05/06 10:47:25;;;;;;;3.45;3.25;;;20.70;58.60;;;;;;4976990;28;20053;-16
2022/05/06 10:49:51;;;;;;;3.88;3.53;;;20.80;58.60;;;;;;4982590;28;20420;-15
2022/05/06 10:52:20;;;;;;;3.13;2.90;;;20.70;58.70;;;;;;4976581;28;20407;-16
2022/05/06 10:54:47;;;;;;;3.90;3.10;;;20.70;58.50;;;;;;4989922;28;20050;-16
2022/05/06 10:57:13;;;;;;;2.95;2.75;;;20.80;58.50;;;;;;4976832;28;20105;-16
2022/05/06 10:59:51;;;;;;;3.10;2.90;;;20.80;58.40;;;;;;4970643;28;20522;-16
2022/05/06 11:02:17;;;;;;;3.00;2.80;;;20.80;58.40;;;;;;4973940;28;20043;-16
2022/05/06 11:04:52;;;;;;;2.92;2.72;;;20.90;58.20;;;;;;4978928;28;20046;-15
2022/05/06 11:07:18;;;;;;;3.00;2.80;;;20.90;58.30;;;;;;4964272;28;20065;-16
2022/05/06 11:09:44;;;;;;;2.67;2.58;;;20.90;58.30;;;;;;4973985;28;20046;-16
2022/05/06 11:12:10;;;;;;;2.70;2.60;;;20.90;58.10;;;;;;4975818;28;20386;-16
2022/05/06 11:14:35;;;;;;;2.70;2.60;;;20.90;58.10;;;;;;4975650;28;20045;-16
2022/05/06 11:17:17;;;;;;;2.65;2.55;;;20.90;58.10;;;;;;4963790;28;20043;-16
2022/05/06 11:19:42;;;;;;;2.50;2.40;;;20.90;58.10;;;;;;4963514;28;20568;-16
2022/05/06 11:22:08;;;;;;;2.92;2.72;;;20.90;57.90;;;;;;4976407;28;20526;-16
2022/05/06 11:24:34;;;;;;;2.60;2.50;;;20.90;58.10;;;;;;4975884;28;20045;-16
2022/05/06 11:27:16;;;;;;;2.70;2.50;;;20.90;58.10;;;;;;4979249;28;20057;-16
2022/05/06 11:29:51;;;;;;;2.30;2.20;;;20.90;58.10;;;;;;4972486;28;20051;-15
2022/05/06 11:32:17;;;;;;;2.42;2.33;;;20.90;58.20;;;;;;4968913;28;20121;-17
2022/05/06 11:35:11;;;;;;;2.50;2.40;;;20.90;58.10;;;;;;4970730;28;20054;-16
2022/05/06 11:37:40;;;;;;;2.53;2.42;;;20.90;58.20;;;;;;4949578;28;20062;-16
2022/05/06 11:40:32;;;;;;;2.45;2.35;;;20.90;58.00;;;;;;4976791;28;20046;-16
2022/05/06 11:43:02;;;;;;;2.40;2.30;;;20.90;58.10;;;;;;5000781;28;20106;-15
2022/05/06 11:48:14;;;;;;;2.63;2.45;;;21.00;57.80;;;;;;4956741;28;20070;-16
2022/05/06 11:50:41;;;;;;;2.50;2.40;;;21.00;57.90;;;;;;4972498;28;20088;-16
2022/05/06 11:53:08;;;;;;;2.72;2.63;;;21.00;58.00;;;;;;4976895;28;20050;-16
2022/05/06 11:55:35;;;;;;;2.50;2.37;;;21.00;57.80;;;;;;4633485;28;10001269;-16
2022/05/06 11:58:01;;;;;;;2.40;2.30;;;21.00;57.70;;;;;;4956752;28;20043;-16
2022/05/06 12:00:27;;;;;;;2.28;2.17;;;21.00;57.80;;;;;;4982409;28;20149;-16
2022/05/06 12:02:53;;;;;;;2.42;2.33;;;21.10;57.90;;;;;;5000198;28;20070;-16
2022/05/06 12:05:18;;;;;;;2.30;2.10;;;21.10;58.00;;;;;;4974207;28;20125;-16
2022/05/06 12:07:47;;;;;;;2.05;1.95;;;21.10;57.70;;;;;;4966381;28;20054;-16
2022/05/06 12:10:32;;;;;;;2.05;1.95;;;21.20;57.90;;;;;;4957047;28;20389;-16
2022/05/06 12:13:00;;;;;;;2.03;1.92;;;21.20;57.90;;;;;;4962129;28;20038;-16
2022/05/06 12:15:37;;;;;;;2.53;2.43;;;21.20;57.90;;;;;;4862934;28;10000872;-16
2022/05/06 12:18:07;;;;;;;2.45;2.35;;;21.30;58.00;;;;;;4961546;28;20326;-16
2022/05/06 12:20:36;;;;;;;2.25;2.15;;;21.20;57.90;;;;;;4972466;28;20043;-15
2022/05/06 12:23:03;;;;;;;2.63;2.53;;;21.20;58.10;;;;;;4978041;28;20116;-16
2022/05/06 12:25:29;;;;;;;2.65;2.45;;;21.20;58.00;;;;;;4975467;28;20053;-16
2022/05/06 12:28:08;;;;;;;2.45;2.25;;;21.20;57.90;;;;;;4951169;28;20126;-16
2022/05/06 12:30:35;;;;;;;2.80;2.60;;;21.20;57.90;;;;;;4980538;28;20162;-16
2022/05/06 12:33:05;;;;;;;2.42;2.33;;;21.30;58.00;;;;;;4971544;28;20050;-16
2022/05/06 12:35:30;;;;;;;2.80;2.70;;;21.30;58.20;;;;;;4966010;28;20047;-16
2022/05/06 12:38:01;;;;;;;2.40;2.30;;;21.30;57.90;;;;;;4959131;28;20670;-16
2022/05/06 12:40:33;;;;;;;2.28;2.17;;;21.30;57.70;;;;;;4961191;28;20046;-16
2022/05/06 12:43:06;;;;;;;2.30;2.20;;;21.30;57.80;;;;;;4982588;28;20066;-16
2022/05/06 12:45:31;;;;;;;2.50;2.30;;;21.20;57.70;;;;;;4976068;28;20055;-16
2022/05/06 12:50:42;;;;;;;;;;;21.30;57.80;;;;;;4975004;28;20126;-20
2022/05/06 12:53:08;;;;;;;2.10;2.00;;;21.30;57.80;;;;;;4985111;28;19929;-17
2022/05/06 12:55:33;;;;;;;2.13;2.03;;;21.30;57.60;;;;;;4976974;28;20611;-16
2022/05/06 12:57:59;;;;;;;1.98;1.88;;;21.30;57.60;;;;;;4963288;28;20135;-16
2022/05/06 13:00:25;;;;;;;3.97;2.03;;;21.30;57.60;;;;;;4971499;28;20047;-16
2022/05/06 13:02:52;;;;;;;2.40;2.30;;;21.30;58.00;;;;;;4965336;28;20094;-16
2022/05/06 13:05:18;;;;;;;2.28;2.17;;;21.40;57.90;;;;;;4972852;28;20042;-15
2022/05/06 13:07:44;;;;;;;2.58;2.47;;;21.40;57.80;;;;;;4977029;28;20039;-17
2022/05/06 13:10:09;;;;;;;2.50;2.40;;;21.30;57.70;;;;;;4986000;28;20190;-16
2022/05/06 13:12:35;;;;;;;2.67;2.28;;;21.30;57.60;;;;;;4965224;28;20059;-16
2022/05/06 13:15:01;;;;;;;3.17;2.33;;;21.40;57.50;;;;;;4976428;28;20038;-16
2022/05/06 13:17:26;;;;;;;2.35;2.15;;;21.40;57.50;;;;;;4968507;28;20043;-16
2022/05/06 13:19:52;;;;;;;2.67;2.47;;;21.40;57.50;;;;;;4981664;28;20038;-17
2022/05/06 13:22:17;;;;;;;2.80;2.60;;;21.40;57.50;;;;;;4976109;28;20062;-16
2022/05/06 13:24:43;;;;;;;2.63;2.53;;;21.40;57.40;;;;;;4977045;28;20047;-16
2022/05/06 13:27:09;;;;;;;2.40;2.25;;;21.40;57.50;;;;;;4970028;28;20051;-17
2022/05/06 13:29:34;;;;;;;2.13;2.03;;;21.40;57.60;;;;;;4967391;28;20041;-16